Time;durP1;ratioP1;P1;durP2;ratioP2;P2;SDS_P1;SDS_P2;PMS_P1;PMS_P2;Temp;Humidity;BMP_temperature;BMP_pressure;BME280_temperature;BME280_humidity;BME280_pressure;Samples;Min_cycle;Max_cycle;Signal;HPM_P1;HPM_P2
2021/04/18 00:00:58;;;;;;;6.28;3.15;;;7.80;99.90;;;;;;5033405;28;20363;-67
2021/04/18 00:03:24;;;;;;;6.85;3.17;;;7.80;99.90;;;;;;5034699;28;20032;-68
2021/04/18 00:05:50;;;;;;;9.75;3.17;;;7.80;99.90;;;;;;5034576;28;20033;-68
2021/04/18 00:08:16;;;;;;;6.90;2.67;;;7.80;99.90;;;;;;5034673;28;20120;-69
2021/04/18 00:10:42;;;;;;;8.10;2.58;;;7.70;99.90;;;;;;5034704;28;20035;-69
2021/04/18 00:13:12;;;;;;;7.43;3.08;;;7.70;99.90;;;;;;5034138;28;20117;-68
2021/04/18 00:15:39;;;;;;;6.38;3.28;;;7.80;99.90;;;;;;5034510;28;20033;-68
2021/04/18 00:18:06;;;;;;;5.22;2.97;;;7.80;99.90;;;;;;5034434;28;20490;-67
2021/04/18 00:20:32;;;;;;;6.38;3.10;;;7.80;99.90;;;;;;5032987;28;20095;-68
2021/04/18 00:22:58;;;;;;;7.88;3.15;;;7.80;99.90;;;;;;5033832;28;20030;-68
2021/04/18 00:25:24;;;;;;;6.22;2.92;;;7.80;99.90;;;;;;5034372;28;20036;-68
2021/04/18 00:27:50;;;;;;;6.47;3.10;;;7.80;99.90;;;;;;5034316;28;20083;-67
2021/04/18 00:30:19;;;;;;;5.47;2.95;;;7.80;99.90;;;;;;5034318;28;20498;-68
2021/04/18 00:32:45;;;;;;;7.75;3.00;;;7.80;99.90;;;;;;5034169;28;20029;-68
2021/04/18 00:35:12;;;;;;;7.40;2.80;;;7.80;99.90;;;;;;5034076;28;20037;-68
2021/04/18 00:37:42;;;;;;;6.05;2.60;;;7.80;99.90;;;;;;5034132;28;20151;-68
2021/04/18 00:40:11;;;;;;;10.82;3.65;;;7.80;99.90;;;;;;5034034;28;20033;-68
2021/04/18 00:42:37;;;;;;;10.40;2.72;;;7.70;99.90;;;;;;5033896;28;20053;-68
2021/04/18 00:45:09;;;;;;;7.40;3.17;;;7.70;99.90;;;;;;5032648;28;20025;-68
2021/04/18 00:47:41;;;;;;;7.95;3.25;;;7.60;99.90;;;;;;5033935;28;20033;-68
2021/04/18 00:50:10;;;;;;;8.20;3.47;;;7.50;99.90;;;;;;5032514;28;20386;-68
2021/04/18 00:52:36;;;;;;;11.48;2.88;;;7.50;99.90;;;;;;5033804;28;20039;-68
2021/04/18 00:55:08;;;;;;;8.05;3.75;;;7.50;99.90;;;;;;5033661;28;20029;-68
2021/04/18 00:57:34;;;;;;;5.43;2.55;;;7.60;99.90;;;;;;5032304;28;20037;-68
2021/04/18 01:00:04;;;;;;;7.07;3.05;;;7.50;99.90;;;;;;5032487;28;20032;-68
2021/04/18 01:02:30;;;;;;;8.13;3.42;;;7.50;99.90;;;;;;5032451;28;20034;-68
2021/04/18 01:04:55;;;;;;;6.20;3.47;;;7.50;99.90;;;;;;5033347;28;20372;-68
2021/04/18 01:07:21;;;;;;;7.88;3.92;;;7.60;99.90;;;;;;5033564;28;20482;-68
2021/04/18 01:09:47;;;;;;;7.68;3.63;;;7.60;99.90;;;;;;5032547;28;20432;-68
2021/04/18 01:12:14;;;;;;;6.70;2.85;;;7.50;99.90;;;;;;5033277;28;20450;-68
2021/04/18 01:14:40;;;;;;;8.30;3.63;;;7.30;99.90;;;;;;5031011;28;20025;-68
2021/04/18 01:17:05;;;;;;;5.97;3.13;;;7.30;99.90;;;;;;5033227;28;20040;-67
2021/04/18 01:19:31;;;;;;;6.97;2.88;;;7.40;99.90;;;;;;5028753;28;20042;-67
2021/04/18 01:21:57;;;;;;;8.35;3.42;;;7.40;99.90;;;;;;5011944;28;20034;-68
2021/04/18 01:24:25;;;;;;;7.07;3.58;;;7.40;99.90;;;;;;5013494;28;20034;-68
2021/04/18 01:26:51;;;;;;;10.75;4.47;;;7.30;99.90;;;;;;5012337;28;20075;-68
2021/04/18 01:29:18;;;;;;;9.57;3.20;;;7.30;99.90;;;;;;5013238;28;20030;-68
2021/04/18 01:31:44;;;;;;;7.43;3.28;;;7.30;99.90;;;;;;5013456;28;20084;-68
2021/04/18 01:34:14;;;;;;;8.40;3.58;;;7.40;99.90;;;;;;5013121;28;20042;-68
2021/04/18 01:36:45;;;;;;;8.30;4.07;;;7.20;99.90;;;;;;4995591;28;20065;-68
2021/04/18 01:39:13;;;;;;;6.85;3.42;;;7.30;99.90;;;;;;5013144;28;20119;-68
2021/04/18 01:41:40;;;;;;;10.02;3.88;;;7.30;99.90;;;;;;4995392;28;20033;-68
2021/04/18 01:44:12;;;;;;;10.57;3.58;;;7.20;99.90;;;;;;5011785;28;20399;-67
2021/04/18 01:46:43;;;;;;;9.85;3.60;;;7.20;99.90;;;;;;5013227;28;20120;-68
2021/04/18 01:49:09;;;;;;;6.95;3.78;;;7.10;99.90;;;;;;4996060;28;20036;-68
2021/04/18 01:51:35;;;;;;;10.02;3.72;;;7.20;99.90;;;;;;5012824;28;20034;-68
2021/04/18 01:54:02;;;;;;;6.53;3.97;;;7.20;99.90;;;;;;5012952;28;20041;-68
2021/04/18 01:56:28;;;;;;;11.27;3.53;;;7.10;99.90;;;;;;5012989;28;20038;-68
2021/04/18 01:58:54;;;;;;;9.25;3.65;;;7.00;99.90;;;;;;5013000;28;20034;-68
2021/04/18 02:01:20;;;;;;;7.95;3.80;;;7.00;99.90;;;;;;5012825;28;20030;-68
2021/04/18 02:03:46;;;;;;;9.60;3.45;;;7.20;99.90;;;;;;5012731;28;20033;-69
2021/04/18 02:06:12;;;;;;;9.07;3.55;;;7.20;99.90;;;;;;5012824;28;20030;-68
2021/04/18 02:08:38;;;;;;;7.05;3.00;;;7.30;99.90;;;;;;5012866;28;20537;-68
2021/04/18 02:11:04;;;;;;;9.77;3.97;;;7.50;99.90;;;;;;5012508;28;20117;-68
2021/04/18 02:13:32;;;;;;;8.07;3.40;;;7.30;99.90;;;;;;5012736;28;20029;-69
2021/04/18 02:15:59;;;;;;;7.68;2.95;;;7.40;99.90;;;;;;5012442;28;20086;-68
2021/04/18 02:18:25;;;;;;;7.53;3.80;;;7.50;99.90;;;;;;5012699;28;20034;-68
2021/04/18 02:20:52;;;;;;;6.82;2.90;;;7.40;99.90;;;;;;5012495;28;20042;-68
2021/04/18 02:23:18;;;;;;;5.43;3.30;;;7.30;99.90;;;;;;5010833;28;20061;-68
2021/04/18 02:25:44;;;;;;;8.73;4.07;;;7.30;99.90;;;;;;5012674;28;20030;-69
2021/04/18 02:28:09;;;;;;;7.45;3.60;;;7.30;99.90;;;;;;5012440;28;20549;-68
2021/04/18 02:30:36;;;;;;;10.05;4.00;;;7.30;99.90;;;;;;5012666;28;20034;-68
2021/04/18 02:33:02;;;;;;;7.80;3.80;;;7.30;99.90;;;;;;5012031;28;20028;-68
2021/04/18 02:35:28;;;;;;;9.55;3.55;;;7.30;99.90;;;;;;5011195;28;20034;-68
2021/04/18 02:37:53;;;;;;;7.20;3.20;;;7.40;99.90;;;;;;5012548;28;20506;-68
2021/04/18 02:40:20;;;;;;;8.98;3.78;;;7.50;99.90;;;;;;5012408;28;20038;-68
2021/04/18 02:42:46;;;;;;;8.40;4.03;;;7.50;99.90;;;;;;5012576;28;20028;-68
2021/04/18 02:45:13;;;;;;;9.88;3.50;;;7.40;99.90;;;;;;5012345;28;20088;-68
2021/04/18 02:47:39;;;;;;;6.15;3.40;;;7.40;99.90;;;;;;5015667;28;20379;-68
2021/04/18 02:50:09;;;;;;;10.07;3.90;;;7.40;99.90;;;;;;5016292;28;20042;-68
2021/04/18 02:52:35;;;;;;;7.15;3.78;;;7.40;99.90;;;;;;5016397;28;20069;-68
2021/04/18 02:55:02;;;;;;;13.77;3.90;;;7.40;99.90;;;;;;5016217;28;20053;-69
2021/04/18 02:57:28;;;;;;;8.20;3.47;;;7.50;99.90;;;;;;5016323;28;20018;-69
2021/04/18 02:59:54;;;;;;;6.55;3.30;;;7.40;99.90;;;;;;5016320;28;20042;-68
2021/04/18 03:02:19;;;;;;;9.32;3.58;;;7.30;99.90;;;;;;5016091;28;20025;-68
2021/04/18 03:04:47;;;;;;;11.05;4.05;;;7.20;99.90;;;;;;5015972;28;20391;-68
2021/04/18 03:07:12;;;;;;;11.23;4.38;;;7.30;99.90;;;;;;5014548;28;20042;-68
2021/04/18 03:09:38;;;;;;;7.50;3.95;;;7.40;99.90;;;;;;5016059;28;20069;-68
2021/04/18 03:12:05;;;;;;;8.05;3.53;;;7.30;99.90;;;;;;5015623;28;20030;-69
2021/04/18 03:14:30;;;;;;;9.63;4.10;;;7.30;99.90;;;;;;5015956;28;20391;-68
2021/04/18 03:16:56;;;;;;;6.40;3.67;;;7.20;99.90;;;;;;4998441;28;20041;-68
2021/04/18 03:19:22;;;;;;;6.85;3.70;;;7.30;99.90;;;;;;5015540;28;20492;-68
2021/04/18 03:21:48;;;;;;;7.65;3.78;;;7.30;99.90;;;;;;5015854;28;20356;-68
2021/04/18 03:24:13;;;;;;;10.02;3.65;;;7.30;99.90;;;;;;5015213;28;20120;-68
2021/04/18 03:26:39;;;;;;;8.07;3.88;;;7.30;99.90;;;;;;5015717;28;20030;-69
2021/04/18 03:29:05;;;;;;;7.55;3.95;;;7.20;99.90;;;;;;5015389;28;20394;-68
2021/04/18 03:31:31;;;;;;;5.72;3.45;;;7.10;99.90;;;;;;5015486;28;20113;-68
2021/04/18 03:33:57;;;;;;;8.88;3.83;;;7.10;99.90;;;;;;5015561;28;20045;-68
2021/04/18 03:36:23;;;;;;;7.43;3.88;;;7.10;99.90;;;;;;5015440;28;20160;-68
2021/04/18 03:38:49;;;;;;;9.13;4.47;;;7.10;99.90;;;;;;5014055;28;20124;-68
2021/04/18 03:41:14;;;;;;;9.05;3.78;;;7.10;99.90;;;;;;5015369;28;20501;-68
2021/04/18 03:43:40;;;;;;;9.63;4.25;;;7.30;99.90;;;;;;4997586;28;20464;-68
2021/04/18 03:46:06;;;;;;;8.35;3.72;;;7.30;99.90;;;;;;5014989;28;20034;-68
2021/04/18 03:48:33;;;;;;;7.47;3.67;;;7.30;99.90;;;;;;5015191;28;20092;-68
2021/04/18 03:50:58;;;;;;;9.68;4.40;;;7.20;99.90;;;;;;5015305;28;20026;-66
2021/04/18 03:53:24;;;;;;;13.70;3.88;;;7.30;99.90;;;;;;5014730;28;20124;-67
2021/04/18 03:55:50;;;;;;;12.95;3.75;;;7.30;99.90;;;;;;5015156;28;20034;-67
2021/04/18 03:58:15;;;;;;;8.98;4.38;;;7.10;99.90;;;;;;5014397;28;20053;-67
2021/04/18 04:00:41;;;;;;;7.00;3.50;;;7.20;99.90;;;;;;5015111;28;20033;-67
2021/04/18 04:03:07;;;;;;;7.20;3.30;;;7.20;99.90;;;;;;5014944;28;20561;-67
2021/04/18 04:05:33;;;;;;;8.75;3.70;;;7.20;99.90;;;;;;5014996;28;20041;-67
2021/04/18 04:08:00;;;;;;;7.47;3.30;;;7.10;99.90;;;;;;5015030;28;20026;-67
2021/04/18 04:10:26;;;;;;;10.63;4.10;;;7.10;99.90;;;;;;5014799;28;20426;-67
2021/04/18 04:12:51;;;;;;;7.97;3.72;;;7.00;99.90;;;;;;5014605;28;20117;-68
2021/04/18 04:15:17;;;;;;;7.40;3.83;;;7.00;99.90;;;;;;4997195;28;20164;-67
2021/04/18 04:17:43;;;;;;;9.48;3.92;;;7.10;99.90;;;;;;5014839;28;20037;-67
2021/04/18 04:20:10;;;;;;;8.43;3.83;;;7.10;99.90;;;;;;5022413;28;20053;-67
2021/04/18 04:22:35;;;;;;;8.63;4.10;;;7.00;99.90;;;;;;5034507;28;20030;-67
2021/04/18 04:25:02;;;;;;;10.82;4.22;;;7.10;99.90;;;;;;5034388;28;20394;-67
2021/04/18 04:27:27;;;;;;;8.93;4.07;;;7.20;99.90;;;;;;5033165;28;20068;-67
2021/04/18 04:29:53;;;;;;;8.52;4.07;;;7.10;99.90;;;;;;5034311;28;20463;-68
2021/04/18 04:32:19;;;;;;;7.13;3.65;;;7.10;99.90;;;;;;5034175;28;20036;-68
2021/04/18 04:34:44;;;;;;;12.88;4.05;;;7.00;99.90;;;;;;5034250;28;20471;-67
2021/04/18 04:37:10;;;;;;;11.48;4.80;;;7.00;99.90;;;;;;5034112;28;20482;-68
2021/04/18 04:39:36;;;;;;;6.32;4.40;;;7.00;99.90;;;;;;5034293;28;20049;-68
2021/04/18 04:42:02;;;;;;;9.88;4.25;;;7.00;99.90;;;;;;5034087;28;20033;-68
2021/04/18 04:44:29;;;;;;;8.77;4.07;;;6.90;99.90;;;;;;5034002;28;20447;-68
2021/04/18 04:46:56;;;;;;;8.38;4.05;;;6.80;99.90;;;;;;5034060;28;20388;-68
2021/04/18 04:49:22;;;;;;;13.90;4.03;;;6.70;99.90;;;;;;5032754;28;20029;-68
2021/04/18 04:51:48;;;;;;;7.63;4.43;;;6.80;99.90;;;;;;5033961;28;20029;-67
2021/04/18 04:54:13;;;;;;;8.07;4.22;;;6.80;99.90;;;;;;5033785;28;20036;-68
2021/04/18 04:56:39;;;;;;;8.20;4.18;;;6.90;99.90;;;;;;5033704;28;20377;-68
2021/04/18 04:59:05;;;;;;;8.55;3.92;;;6.90;99.90;;;;;;5033858;28;20041;-68
2021/04/18 05:01:31;;;;;;;9.15;4.32;;;6.90;99.90;;;;;;5033569;28;20030;-68
2021/04/18 05:03:56;;;;;;;7.75;4.20;;;7.00;99.90;;;;;;5033210;28;20125;-68
2021/04/18 05:06:22;;;;;;;9.90;4.82;;;7.10;99.90;;;;;;5032366;28;20022;-67
2021/04/18 05:08:48;;;;;;;10.55;4.88;;;7.00;99.90;;;;;;5033644;28;20029;-68
2021/04/18 05:11:14;;;;;;;9.25;4.60;;;6.90;99.90;;;;;;5032455;28;20494;-68
2021/04/18 05:13:40;;;;;;;8.93;4.20;;;7.00;99.90;;;;;;5033197;28;20493;-68
2021/04/18 05:16:06;;;;;;;9.73;4.65;;;7.00;99.90;;;;;;5033412;28;20041;-67
2021/04/18 05:18:32;;;;;;;9.35;4.90;;;7.00;99.90;;;;;;5033386;28;20179;-68
2021/04/18 05:20:58;;;;;;;10.07;4.38;;;7.00;99.90;;;;;;5032919;28;20561;-68
2021/04/18 05:23:26;;;;;;;10.00;4.03;;;6.90;99.90;;;;;;5033104;28;20500;-68
2021/04/18 05:25:52;;;;;;;9.63;4.88;;;6.80;99.90;;;;;;5033224;28;20105;-68
2021/04/18 05:28:18;;;;;;;8.52;3.97;;;6.80;99.90;;;;;;5033088;28;20536;-67
2021/04/18 05:30:43;;;;;;;12.98;4.90;;;6.90;99.90;;;;;;5033043;28;20052;-67
2021/04/18 05:33:09;;;;;;;7.80;4.10;;;7.00;99.90;;;;;;5033113;28;20026;-68
2021/04/18 05:35:35;;;;;;;8.15;4.22;;;7.00;99.90;;;;;;5032905;28;20033;-68
2021/04/18 05:38:01;;;;;;;8.73;5.03;;;7.20;99.90;;;;;;5032977;28;20032;-67
2021/04/18 05:40:27;;;;;;;10.80;4.03;;;7.20;99.90;;;;;;5032888;28;20478;-73
2021/04/18 05:42:52;;;;;;;10.43;4.80;;;7.30;99.90;;;;;;5032723;28;20025;-73
2021/04/18 05:45:18;;;;;;;10.50;4.53;;;7.30;99.90;;;;;;5032826;28;20418;-73
2021/04/18 05:47:44;;;;;;;11.77;4.90;;;7.20;99.90;;;;;;5032788;28;20022;-70
2021/04/18 05:50:10;;;;;;;10.80;4.38;;;7.20;99.90;;;;;;5030469;28;20505;-72
2021/04/18 05:52:38;;;;;;;7.90;4.50;;;7.10;99.90;;;;;;5029709;28;20713;-72
2021/04/18 05:55:07;;;;;;;8.52;4.18;;;7.30;99.90;;;;;;5032694;28;20040;-70
2021/04/18 05:57:33;;;;;;;21.80;11.02;;;7.40;99.90;;;;;;5031729;28;20034;-71
2021/04/18 05:59:59;;;;;;;15.65;6.82;;;7.50;99.90;;;;;;5032483;28;20112;-68
2021/04/18 06:02:24;;;;;;;10.20;5.13;;;7.50;99.90;;;;;;5032559;28;20040;-71
2021/04/18 06:04:50;;;;;;;10.07;4.63;;;7.40;99.90;;;;;;5032496;28;20359;-68
2021/04/18 06:07:16;;;;;;;9.32;4.70;;;7.10;99.90;;;;;;5032008;28;20044;-68
2021/04/18 06:09:42;;;;;;;10.77;5.10;;;7.10;99.90;;;;;;5032653;28;20036;-69
2021/04/18 06:12:08;;;;;;;11.23;5.15;;;7.10;99.90;;;;;;5032285;28;20509;-70
2021/04/18 06:14:34;;;;;;;7.07;4.68;;;7.10;99.90;;;;;;5032392;28;20033;-69
2021/04/18 06:16:59;;;;;;;10.75;4.85;;;7.10;99.90;;;;;;5032293;28;20026;-69
2021/04/18 06:19:25;;;;;;;10.10;4.97;;;7.10;99.90;;;;;;5032044;28;20046;-71
2021/04/18 06:21:51;;;;;;;9.57;5.13;;;7.40;99.90;;;;;;5031819;28;20053;-66
2021/04/18 06:24:17;;;;;;;11.00;5.03;;;7.40;99.90;;;;;;5031990;28;20033;-65
2021/04/18 06:26:43;;;;;;;11.23;4.97;;;7.40;99.90;;;;;;5032216;28;20029;-64
2021/04/18 06:29:08;;;;;;;11.18;5.18;;;7.50;99.90;;;;;;5032350;28;20029;-66
2021/04/18 06:31:34;;;;;;;8.60;4.78;;;7.70;99.90;;;;;;5014373;28;20043;-67
2021/04/18 06:34:00;;;;;;;8.85;4.47;;;7.90;99.90;;;;;;5031928;28;20025;-67
2021/04/18 06:36:25;;;;;;;10.43;4.50;;;7.80;99.90;;;;;;5031906;28;20025;-67
2021/04/18 06:38:51;;;;;;;8.52;4.05;;;7.90;99.90;;;;;;5032116;28;20559;-67
2021/04/18 06:41:23;;;;;;;8.93;4.25;;;7.80;99.90;;;;;;5030838;28;20032;-65
2021/04/18 06:43:53;;;;;;;10.25;4.80;;;7.80;99.90;;;;;;5032075;28;20414;-66
2021/04/18 06:46:21;;;;;;;11.68;5.28;;;7.90;99.90;;;;;;5030389;28;20034;-66
2021/04/18 06:48:48;;;;;;;9.57;5.68;;;8.00;99.90;;;;;;5032050;28;20112;-67
2021/04/18 06:51:18;;;;;;;12.98;6.35;;;8.00;99.90;;;;;;5032072;28;20033;-67
2021/04/18 06:53:46;;;;;;;12.27;6.30;;;8.00;99.90;;;;;;5032072;28;20029;-65
2021/04/18 06:56:12;;;;;;;15.05;6.25;;;8.10;99.90;;;;;;5030995;28;20049;-67
2021/04/18 06:58:38;;;;;;;8.63;6.30;;;8.50;99.90;;;;;;5031910;28;20479;-66
2021/04/18 07:01:04;;;;;;;11.77;5.43;;;8.50;99.90;;;;;;5014496;28;20060;-68
2021/04/18 07:03:31;;;;;;;11.80;5.90;;;8.60;99.90;;;;;;5031911;28;20456;-67
2021/04/18 07:05:59;;;;;;;12.55;6.32;;;8.80;99.90;;;;;;5031994;28;20091;-67
2021/04/18 07:08:29;;;;;;;17.25;6.97;;;9.00;99.90;;;;;;5031834;28;20099;-67
2021/04/18 07:11:19;;;;;;;13.13;6.35;;;9.10;99.90;;;;;;5030770;28;20045;-66
2021/04/18 07:13:47;;;;;;;12.07;5.95;;;9.30;99.90;;;;;;5031832;28;20026;-67
2021/04/18 07:16:32;;;;;;;12.57;5.70;;;9.20;99.90;;;;;;5031971;28;20113;-67
2021/04/18 07:18:58;;;;;;;10.95;5.57;;;9.30;99.90;;;;;;5031814;28;20025;-66
2021/04/18 07:21:45;;;;;;;12.10;5.38;;;9.40;99.90;;;;;;5024785;28;20095;-65
2021/04/18 07:24:11;;;;;;;11.43;5.55;;;9.40;99.90;;;;;;5031605;28;20040;-65
2021/04/18 07:26:37;;;;;;;11.70;5.35;;;9.60;99.90;;;;;;5031334;28;20036;-65
2021/04/18 07:29:20;;;;;;;11.93;4.75;;;9.80;99.90;;;;;;5013605;28;20383;-65
2021/04/18 07:31:47;;;;;;;12.07;4.70;;;10.00;99.90;;;;;;5031545;28;20033;-64
2021/04/18 07:34:16;;;;;;;13.63;6.10;;;10.20;99.90;;;;;;5033876;28;20040;-64
2021/04/18 07:36:47;;;;;;;16.15;7.05;;;10.00;99.90;;;;;;5035136;28;20471;-65
2021/04/18 07:39:15;;;;;;;8.35;4.95;;;9.90;99.90;;;;;;5034055;28;20033;-65
2021/04/18 07:41:48;;;;;;;9.40;5.03;;;10.00;99.90;;;;;;5035065;28;20034;-65
2021/04/18 07:44:17;;;;;;;10.70;5.35;;;10.00;99.90;;;;;;5035007;28;20026;-64
2021/04/18 07:46:52;;;;;;;14.48;4.20;;;10.20;99.90;;;;;;5034596;28;20036;-65
2021/04/18 07:49:19;;;;;;;14.98;4.43;;;10.20;99.90;;;;;;5034714;28;20025;-65
2021/04/18 07:51:48;;;;;;;9.38;4.70;;;10.30;99.90;;;;;;5023741;28;20065;-65
2021/04/18 07:54:16;;;;;;;9.48;4.93;;;10.60;99.90;;;;;;5034701;28;20072;-66
2021/04/18 07:56:46;;;;;;;7.97;3.80;;;10.70;99.90;;;;;;5034833;28;20060;-65
2021/04/18 07:59:17;;;;;;;10.10;4.55;;;10.80;99.90;;;;;;5034741;28;20065;-65
2021/04/18 08:01:43;;;;;;;8.60;3.83;;;10.50;99.90;;;;;;5034694;28;20498;-65
2021/04/18 08:04:10;;;;;;;9.73;4.75;;;10.30;99.90;;;;;;5034502;28;20124;-64
2021/04/18 08:06:42;;;;;;;9.30;4.38;;;10.00;99.90;;;;;;5033425;28;20026;-64
2021/04/18 08:09:23;;;;;;;9.23;4.53;;;10.00;99.90;;;;;;5033380;28;20033;-64
2021/04/18 08:12:11;;;;;;;8.43;4.40;;;9.70;99.90;;;;;;5002258;28;20521;-65
2021/04/18 08:14:42;;;;;;;11.20;4.90;;;10.10;99.90;;;;;;5024356;28;20617;-65
2021/04/18 08:17:15;;;;;;;10.60;4.88;;;10.50;99.90;;;;;;5034477;28;20029;-65
2021/04/18 08:20:00;;;;;;;10.50;4.53;;;10.60;99.90;;;;;;5034046;28;20380;-67
2021/04/18 08:23:10;;;;;;;8.27;4.00;;;10.70;99.90;;;;;;5013194;28;20088;-66
2021/04/18 08:25:57;;;;;;;8.55;4.78;;;10.50;99.90;;;;;;5009702;28;20041;-67
2021/04/18 08:28:23;;;;;;;11.10;5.82;;;10.60;99.90;;;;;;5013944;28;20081;-66
2021/04/18 08:31:07;;;;;;;12.82;4.90;;;10.80;99.90;;;;;;5014460;28;20066;-65
2021/04/18 08:33:39;;;;;;;10.98;5.30;;;11.10;99.10;;;;;;5014152;28;20093;-65
2021/04/18 08:36:13;;;;;;;9.02;4.43;;;10.90;99.70;;;;;;5014208;28;20079;-64
2021/04/18 08:38:39;;;;;;;11.80;5.93;;;10.90;99.20;;;;;;5013673;28;20066;-64
2021/04/18 08:41:10;;;;;;;13.52;5.70;;;11.20;99.20;;;;;;5013679;28;20530;-63
2021/04/18 08:43:36;;;;;;;10.05;5.35;;;11.40;98.40;;;;;;5014068;28;20130;-63
2021/04/18 08:46:02;;;;;;;13.73;5.53;;;11.50;98.20;;;;;;5011671;28;20129;-64
2021/04/18 08:48:28;;;;;;;11.35;4.57;;;11.80;97.90;;;;;;5013886;28;20052;-63
2021/04/18 08:51:05;;;;;;;13.88;5.57;;;11.70;97.80;;;;;;5021718;28;20029;-64
2021/04/18 08:53:58;;;;;;;11.93;6.03;;;11.90;97.40;;;;;;5033855;28;20033;-64
2021/04/18 08:56:50;;;;;;;11.75;5.40;;;11.80;97.80;;;;;;5033857;28;20021;-63
2021/04/18 08:59:19;;;;;;;9.30;5.15;;;11.80;97.50;;;;;;5033642;28;20037;-64
2021/04/18 09:01:54;;;;;;;12.45;6.05;;;11.80;97.40;;;;;;5033274;28;20040;-64
2021/04/18 09:04:21;;;;;;;14.95;6.00;;;12.20;96.90;;;;;;5033520;28;20037;-64
2021/04/18 09:06:48;;;;;;;13.25;5.88;;;11.80;97.10;;;;;;5033527;28;20025;-64
2021/04/18 09:09:15;;;;;;;10.93;6.07;;;11.20;98.50;;;;;;5033524;28;20037;-64
2021/04/18 09:11:44;;;;;;;13.73;6.53;;;11.20;98.80;;;;;;5033435;28;20030;-64
2021/04/18 09:14:10;;;;;;;20.60;7.85;;;11.40;99.20;;;;;;5033504;28;20032;-64
2021/04/18 09:16:38;;;;;;;13.15;6.65;;;11.90;98.60;;;;;;5033390;28;20029;-64
2021/04/18 09:19:30;;;;;;;14.00;7.05;;;11.80;97.60;;;;;;5031614;28;20088;-63
2021/04/18 09:22:09;;;;;;;13.23;5.90;;;11.90;98.10;;;;;;5033064;28;20025;-64
2021/04/18 09:24:52;;;;;;;12.85;6.65;;;12.00;97.90;;;;;;5033072;28;20112;-64
2021/04/18 09:27:25;;;;;;;13.55;6.97;;;12.20;97.60;;;;;;5032838;28;20033;-63
2021/04/18 09:29:58;;;;;;;13.88;6.50;;;12.60;96.80;;;;;;5033011;28;20038;-63
2021/04/18 09:32:27;;;;;;;13.40;6.43;;;12.60;97.00;;;;;;5033175;28;20033;-63
2021/04/18 09:34:53;;;;;;;13.68;6.97;;;12.50;96.80;;;;;;5033044;28;20033;-64
2021/04/18 09:37:31;;;;;;;17.15;7.68;;;12.20;97.60;;;;;;5032940;28;20035;-63
2021/04/18 09:40:16;;;;;;;16.55;7.18;;;12.50;97.40;;;;;;5015613;28;20041;-64
2021/04/18 09:42:46;;;;;;;15.98;6.97;;;12.50;97.40;;;;;;5031793;28;20060;-65
2021/04/18 09:45:20;;;;;;;11.98;6.40;;;12.30;97.10;;;;;;5032866;28;20045;-64
2021/04/18 09:47:49;;;;;;;19.67;7.10;;;12.00;98.20;;;;;;5033006;28;20492;-64
2021/04/18 09:50:34;;;;;;;13.98;6.47;;;12.30;98.00;;;;;;5014707;28;20489;-63
2021/04/18 09:53:23;;;;;;;18.42;6.15;;;12.50;97.50;;;;;;5032588;28;20057;-64
2021/04/18 09:56:00;;;;;;;15.25;6.45;;;12.60;97.70;;;;;;5032045;28;20033;-64
2021/04/18 09:58:35;;;;;;;14.93;7.05;;;12.70;97.50;;;;;;5032718;28;20033;-64
2021/04/18 10:01:04;;;;;;;12.82;6.72;;;12.90;97.10;;;;;;5031426;28;20029;-64
2021/04/18 10:03:37;;;;;;;13.70;7.18;;;13.30;96.50;;;;;;5032320;28;20026;-65
2021/04/18 10:06:04;;;;;;;16.88;7.28;;;13.30;96.00;;;;;;5032425;28;20030;-64
2021/04/18 10:08:34;;;;;;;12.07;7.15;;;12.80;96.90;;;;;;5031261;28;20029;-64
2021/04/18 10:11:05;;;;;;;15.32;7.18;;;12.60;97.10;;;;;;5032501;28;20065;-64
2021/04/18 10:13:53;;;;;;;13.32;6.40;;;12.60;97.30;;;;;;5032237;28;20033;-63
2021/04/18 10:16:36;;;;;;;14.68;7.45;;;12.70;97.80;;;;;;5014653;28;20033;-64
2021/04/18 10:19:18;;;;;;;13.13;7.43;;;12.70;97.80;;;;;;5032223;28;20220;-63
2021/04/18 10:22:06;;;;;;;13.65;6.80;;;13.20;97.50;;;;;;5031911;28;20030;-64
2021/04/18 10:24:43;;;;;;;14.32;6.43;;;12.90;98.10;;;;;;5031997;28;20120;-63
2021/04/18 10:27:13;;;;;;;18.35;7.22;;;13.50;97.20;;;;;;5032047;28;20565;-64
2021/04/18 10:29:41;;;;;;;14.23;7.10;;;13.90;96.00;;;;;;5031926;28;20119;-64
2021/04/18 10:32:09;;;;;;;14.93;7.13;;;13.80;96.00;;;;;;5032124;28;20033;-63
2021/04/18 10:34:36;;;;;;;12.88;7.15;;;13.70;96.30;;;;;;5032094;28;20033;-63
2021/04/18 10:37:03;;;;;;;17.70;7.53;;;13.70;96.50;;;;;;5032125;28;20050;-64
2021/04/18 10:39:30;;;;;;;18.88;6.97;;;13.50;96.60;;;;;;5032079;28;20116;-64
2021/04/18 10:41:56;;;;;;;17.02;7.82;;;12.90;98.00;;;;;;5031132;28;20042;-64
2021/04/18 10:44:23;;;;;;;14.35;7.18;;;13.50;97.20;;;;;;5032046;28;20029;-63
2021/04/18 10:46:55;;;;;;;15.80;8.27;;;13.70;97.20;;;;;;5014071;28;20567;-63
2021/04/18 10:49:22;;;;;;;15.90;7.65;;;13.20;97.60;;;;;;5031933;28;20047;-64
2021/04/18 10:51:48;;;;;;;17.33;8.40;;;13.80;97.10;;;;;;5030408;28;20034;-65
2021/04/18 10:54:16;;;;;;;18.02;9.90;;;13.70;96.80;;;;;;5032059;28;20061;-64
2021/04/18 10:56:47;;;;;;;14.02;7.57;;;13.80;97.30;;;;;;5031845;28;20029;-64
2021/04/18 10:59:14;;;;;;;;;;;13.60;97.00;;;;;;5032377;28;20061;-64
2021/04/18 11:01:40;;;;;;;16.27;6.80;;;13.30;98.90;;;;;;5014310;28;20358;-64
2021/04/18 11:04:06;;;;;;;13.48;7.65;;;14.10;97.60;;;;;;5031909;28;20087;-64
2021/04/18 11:06:32;;;;;;;11.55;7.05;;;14.50;96.80;;;;;;5031730;28;20037;-65
2021/04/18 11:08:58;;;;;;;14.20;7.68;;;14.50;96.70;;;;;;5033919;28;20030;-64
2021/04/18 11:11:25;;;;;;;11.60;7.28;;;14.30;96.70;;;;;;5034593;28;20087;-64
2021/04/18 11:13:51;;;;;;;12.32;7.22;;;14.20;97.30;;;;;;5035031;28;20030;-64
2021/04/18 11:16:19;;;;;;;13.40;7.25;;;14.10;97.30;;;;;;5035419;28;20064;-63
2021/04/18 11:18:46;;;;;;;16.00;8.18;;;14.10;97.20;;;;;;5034323;28;20029;-63
2021/04/18 11:21:14;;;;;;;14.23;7.50;;;13.80;98.00;;;;;;5017333;28;20042;-64
2021/04/18 11:23:40;;;;;;;16.40;7.05;;;13.70;98.40;;;;;;5035444;28;20134;-64
2021/04/18 11:26:06;;;;;;;16.75;7.55;;;13.90;98.10;;;;;;5017319;28;20029;-64
2021/04/18 11:28:32;;;;;;;14.65;7.35;;;13.90;98.20;;;;;;5035544;28;20494;-64
2021/04/18 11:30:59;;;;;;;16.30;8.00;;;13.90;98.40;;;;;;5035294;28;20073;-65
2021/04/18 11:33:25;;;;;;;13.57;7.10;;;13.70;98.60;;;;;;5035465;28;20029;-65
2021/04/18 11:35:51;;;;;;;14.18;6.78;;;13.90;98.30;;;;;;5035186;28;20033;-64
2021/04/18 11:38:17;;;;;;;13.60;7.28;;;13.90;98.40;;;;;;5017272;28;20486;-64
2021/04/18 11:40:43;;;;;;;13.43;6.35;;;13.70;98.40;;;;;;5034708;28;20049;-64
2021/04/18 11:43:09;;;;;;;11.35;7.47;;;13.70;98.60;;;;;;5035350;28;20083;-64
2021/04/18 11:45:35;;;;;;;11.68;6.60;;;13.60;99.20;;;;;;5034779;28;20034;-65
2021/04/18 11:48:01;;;;;;;16.52;8.18;;;13.40;99.60;;;;;;5034861;28;20482;-63
2021/04/18 11:50:27;;;;;;;14.18;7.93;;;13.30;99.90;;;;;;5035084;28;20041;-66
2021/04/18 11:52:55;;;;;;;15.00;7.68;;;13.40;99.90;;;;;;5034751;28;20033;-65
2021/04/18 11:55:24;;;;;;;14.27;7.25;;;13.10;99.90;;;;;;5034802;28;20126;-64
2021/04/18 11:57:51;;;;;;;14.38;7.65;;;13.20;99.90;;;;;;5033589;28;20128;-65
2021/04/18 12:00:18;;;;;;;16.20;7.32;;;13.30;99.90;;;;;;5034924;28;20068;-64
2021/04/18 12:02:44;;;;;;;16.42;8.05;;;13.40;99.90;;;;;;5033299;28;20046;-65
2021/04/18 12:05:11;;;;;;;13.43;7.20;;;13.60;99.80;;;;;;5031259;28;20093;-62
2021/04/18 12:07:37;;;;;;;16.67;8.18;;;13.60;99.50;;;;;;5038318;28;20087;-62
2021/04/18 12:10:05;;;;;;;12.98;7.35;;;13.30;99.90;;;;;;5033558;28;20077;-63
2021/04/18 12:12:31;;;;;;;16.08;7.45;;;13.40;99.70;;;;;;5000507;28;20103;-66
2021/04/18 12:14:57;;;;;;;13.10;7.35;;;12.70;99.90;;;;;;5032332;28;20080;-66
2021/04/18 12:17:23;;;;;;;16.67;8.68;;;12.90;99.90;;;;;;5022334;28;20107;-67
2021/04/18 12:19:49;;;;;;;10.48;6.43;;;13.00;99.90;;;;;;5033260;28;20056;-66
2021/04/18 12:22:14;;;;;;;14.82;7.50;;;13.00;99.90;;;;;;5040711;28;20052;-66
2021/04/18 12:24:42;;;;;;;15.45;8.25;;;13.00;99.90;;;;;;5035889;28;20120;-68
2021/04/18 12:27:08;;;;;;;13.43;7.72;;;12.90;99.90;;;;;;5034473;28;20029;-69
2021/04/18 12:29:34;;;;;;;13.45;7.35;;;12.70;99.90;;;;;;5034157;28;20437;-69
2021/04/18 12:31:59;;;;;;;14.48;7.90;;;12.60;99.90;;;;;;5034164;28;20030;-70
2021/04/18 12:34:25;;;;;;;14.27;7.30;;;12.30;99.90;;;;;;5034256;28;20037;-71
2021/04/18 12:36:52;;;;;;;13.10;7.60;;;12.30;99.90;;;;;;5033482;28;20080;-71
2021/04/18 12:39:18;;;;;;;16.17;7.60;;;12.40;99.90;;;;;;5034222;28;20041;-68
2021/04/18 12:41:44;;;;;;;13.70;7.85;;;12.40;99.90;;;;;;5016046;28;20109;-70
2021/04/18 12:44:10;;;;;;;14.95;7.68;;;12.30;99.90;;;;;;5034309;28;20116;-70
2021/04/18 12:46:35;;;;;;;15.82;7.88;;;12.30;99.90;;;;;;5034061;28;20140;-70
2021/04/18 12:49:01;;;;;;;14.40;8.00;;;12.40;99.90;;;;;;5015861;28;20038;-70
2021/04/18 12:51:28;;;;;;;15.07;7.60;;;12.40;99.90;;;;;;5026032;28;20041;-70
2021/04/18 12:53:55;;;;;;;16.20;7.97;;;12.50;99.90;;;;;;5033486;28;20025;-68